Time;durP1;ratioP1;P1;durP2;ratioP2;P2;SDS_P1;SDS_P2;PMS_P1;PMS_P2;Temp;Humidity;BMP_temperature;BMP_pressure;BME280_temperature;BME280_humidity;BME280_pressure;Samples;Min_cycle;Max_cycle;Signal;HPM_P1;HPM_P2
2022/03/26 05:11:53;;;;;;;;;;;;;;;9.73;39.71;99301.03;5323406;24;20238;-67
2022/03/26 05:14:20;;;;;;;;;;;;;;;9.66;40.28;99300.88;4811864;29;19969;-67
2022/03/26 05:16:48;;;;;;;;;;;;;;;9.62;40.36;99302.81;4812393;29;19962;-67
2022/03/26 05:19:15;;;;;;;;;;;;;;;9.64;40.34;99305.22;4811863;29;19960;-67
2022/03/26 05:21:42;;;;;;;;;;;;;;;9.60;40.67;99309.94;4811116;29;19957;-67
2022/03/26 05:24:12;;;;;;;;;;;;;;;9.59;40.85;99311.91;4807883;29;19950;-67
2022/03/26 05:26:39;;;;;;;;;;;;;;;9.62;40.59;99318.75;4811000;29;19972;-67
2022/03/26 05:29:07;;;;;;;;;;;;;;;9.67;40.35;99316.47;4811660;29;19975;-67
2022/03/26 05:31:36;;;;;;;;;;;;;;;9.75;39.45;99314.66;4795959;29;19962;-67
2022/03/26 05:34:03;;;;;;;;;;;;;;;9.81;40.39;99321.53;4811466;29;19945;-67
2022/03/26 05:36:31;;;;;;;;;;;;;;;9.90;40.17;99314.53;4812224;29;19957;-67
2022/03/26 05:38:58;;;;;;;;;;;;;;;9.96;39.74;99328.22;4811572;29;19951;-67
2022/03/26 05:41:27;;;;;;;;;;;;;;;10.06;40.08;99320.06;4811790;29;19956;-67
2022/03/26 05:43:54;;;;;;;;;;;;;;;10.17;40.71;99329.47;4811734;29;20352;-67
2022/03/26 05:46:22;;;;;;;;;;;;;;;10.26;40.52;99329.25;4811788;29;19953;-67
2022/03/26 05:48:49;;;;;;;;;;;;;;;10.44;38.60;99328.38;4796461;29;20404;-67
2022/03/26 05:51:16;;;;;;;;;;;;;;;10.54;39.77;99332.56;4811318;29;19955;-67
2022/03/26 05:53:44;;;;;;;;;;;;;;;10.73;39.20;99328.91;4812442;29;19952;-67
2022/03/26 05:56:11;;;;;;;;;;;;;;;10.89;39.75;99327.56;4811842;29;19953;-67
2022/03/26 05:58:39;;;;;;;;;;;;;;;11.07;38.78;99337.06;4811909;29;19953;-67
2022/03/26 06:01:06;;;;;;;;;;;;;;;11.27;38.50;99332.19;4796589;29;20224;-67
2022/03/26 06:03:33;;;;;;;;;;;;;;;11.48;38.27;99332.47;4796410;29;20363;-67
2022/03/26 06:06:01;;;;;;;;;;;;;;;11.73;38.37;99339.25;4810767;29;20348;-67
2022/03/26 06:08:28;;;;;;;;;;;;;;;12.01;37.12;99343.59;4812325;29;19967;-67
2022/03/26 06:10:55;;;;;;;;;;;;;;;12.31;35.47;99347.97;4816075;29;20229;-67
2022/03/26 06:13:22;;;;;;;;;;;;;;;12.88;35.07;99345.72;4811566;29;20024;-67
2022/03/26 06:15:50;;;;;;;;;;;;;;;13.45;33.51;99347.78;4811941;29;20260;-67
2022/03/26 06:18:17;;;;;;;;;;;;;;;14.28;32.54;99356.25;4810086;29;19956;-67
2022/03/26 06:20:44;;;;;;;;;;;;;;;15.46;32.41;99358.81;4811983;29;19956;-67
2022/03/26 06:23:12;;;;;;;;;;;;;;;16.46;30.29;99360.88;4811034;29;20371;-67
2022/03/26 06:25:39;;;;;;;;;;;;;;;17.66;27.69;99366.47;4811390;29;20357;-67
2022/03/26 06:28:09;;;;;;;;;;;;;;;19.02;26.54;99367.97;4810937;29;20435;-67
2022/03/26 06:30:37;;;;;;;;;;;;;;;20.14;24.67;99364.38;4795180;29;19956;-68
2022/03/26 06:33:04;;;;;;;;;;;;;;;21.52;23.62;99367.72;4801483;29;19948;-67
2022/03/26 06:35:32;;;;;;;;;;;;;;;22.42;22.35;99370.56;4802905;29;19947;-69
2022/03/26 06:37:59;;;;;;;;;;;;;;;23.09;21.43;99377.06;4794591;29;19948;-70
2022/03/26 06:40:26;;;;;;;;;;;;;;;23.98;21.14;99372.81;4811871;29;19943;-70
2022/03/26 06:42:54;;;;;;;;;;;;;;;24.68;20.18;99380.03;4810650;29;19949;-70
2022/03/26 06:45:21;;;;;;;;;;;;;;;25.10;19.67;99378.41;4810757;29;19955;-70
2022/03/26 06:47:49;;;;;;;;;;;;;;;24.87;20.86;99372.41;4802279;29;19979;-70
2022/03/26 06:50:16;;;;;;;;;;;;;;;24.90;19.74;99383.69;4798741;29;19947;-68
2022/03/26 06:52:43;;;;;;;;;;;;;;;24.28;20.12;99377.09;4805433;29;19973;-68
2022/03/26 06:55:10;;;;;;;;;;;;;;;23.98;21.07;99392.03;4806305;29;20244;-68
2022/03/26 06:57:38;;;;;;;;;;;;;;;23.15;22.13;99389.50;4784189;30;19949;-68
2022/03/26 07:00:06;;;;;;;;;;;;;;;22.78;21.30;99379.66;4791696;29;19947;-69
2022/03/26 07:02:33;;;;;;;;;;;;;;;22.07;21.76;99392.31;4792336;29;19943;-68
2022/03/26 07:05:00;;;;;;;;;;;;;;;21.43;22.86;99381.78;4801025;29;19952;-68
2022/03/26 07:07:27;;;;;;;;;;;;;;;21.16;23.04;99377.56;4793691;29;19951;-68
2022/03/26 07:09:58;;;;;;;;;;;;;;;20.92;23.63;99377.72;4810622;29;19954;-68
2022/03/26 07:12:27;;;;;;;;;;;;;;;20.74;23.53;99380.16;4810637;29;19973;-68
2022/03/26 07:14:54;;;;;;;;;;;;;;;20.43;23.42;99380.84;4800721;29;19950;-68
2022/03/26 07:17:21;;;;;;;;;;;;;;;20.41;23.67;99377.66;4805635;29;19965;-70
2022/03/26 07:19:49;;;;;;;;;;;;;;;20.27;23.99;99381.59;4809367;29;19948;-68
2022/03/26 07:22:17;;;;;;;;;;;;;;;20.09;24.42;99378.25;4802079;29;19953;-67
2022/03/26 07:24:45;;;;;;;;;;;;;;;20.24;23.90;99382.47;4805878;29;20366;-70
2022/03/26 07:27:13;;;;;;;;;;;;;;;20.03;24.33;99389.31;4804720;29;19956;-69
2022/03/26 07:29:40;;;;;;;;;;;;;;;19.91;24.45;99389.97;4806371;29;19983;-69
2022/03/26 07:32:09;;;;;;;;;;;;;;;19.96;24.05;99395.13;4807785;29;19946;-67
2022/03/26 07:34:36;;;;;;;;;;;;;;;20.05;23.98;99388.91;4801628;29;19949;-67
2022/03/26 07:37:04;;;;;;;;;;;;;;;20.21;24.16;99392.63;4801945;29;19949;-67
2022/03/26 07:39:31;;;;;;;;;;;;;;;20.45;24.11;99395.41;4793617;29;20345;-68
2022/03/26 07:41:58;;;;;;;;;;;;;;;20.52;24.03;99398.09;4787646;30;19962;-68
2022/03/26 07:44:26;;;;;;;;;;;;;;;20.54;24.38;99407.00;4795671;29;19955;-67
2022/03/26 07:46:53;;;;;;;;;;;;;;;20.63;24.01;99398.69;4798968;29;19955;-68
2022/03/26 07:49:20;;;;;;;;;;;;;;;20.60;24.27;99408.88;4802755;29;19969;-69
2022/03/26 07:51:47;;;;;;;;;;;;;;;20.38;25.01;99404.09;4803638;29;19957;-69
2022/03/26 07:54:15;;;;;;;;;;;;;;;20.26;24.99;99416.91;4801276;29;19946;-68
2022/03/26 07:56:42;;;;;;;;;;;;;;;20.27;24.83;99419.28;4804941;29;19949;-68
2022/03/26 07:59:09;;;;;;;;;;;;;;;20.14;25.43;99424.00;4806861;29;19948;-68
2022/03/26 08:01:37;;;;;;;;;;;;;;;20.18;25.71;99423.91;4800216;29;19955;-68
2022/03/26 08:04:04;;;;;;;;;;;;;;;19.80;26.63;99429.09;4809163;29;19955;-68
2022/03/26 08:06:32;;;;;;;;;;;;;;;19.99;25.97;99425.50;4792761;29;20227;-68
2022/03/26 08:08:59;;;;;;;;;;;;;;;19.72;26.64;99430.47;4806709;29;19972;-68
2022/03/26 08:11:27;;;;;;;;;;;;;;;19.92;25.74;99439.03;4808853;29;20262;-68
2022/03/26 08:13:55;;;;;;;;;;;;;;;19.74;24.87;99438.53;4810815;29;19948;-68
2022/03/26 08:16:23;;;;;;;;;;;;;;;19.96;25.07;99439.75;4813280;29;19943;-68
2022/03/26 08:18:50;;;;;;;;;;;;;;;19.94;25.42;99437.38;4829125;29;19949;-68
2022/03/26 08:21:18;;;;;;;;;;;;;;;19.76;25.59;99447.44;4830766;29;19980;-68
2022/03/26 08:23:45;;;;;;;;;;;;;;;19.81;26.10;99446.91;4831266;29;19951;-68
2022/03/26 08:26:29;;;;;;;;;;;;;;;19.83;26.15;99445.25;4831374;29;19955;-68
2022/03/26 08:29:00;;;;;;;;;;;;;;;19.92;26.51;99442.69;4831728;29;19972;-68
2022/03/26 08:31:29;;;;;;;;;;;;;;;19.78;25.12;99442.94;4826634;29;19950;-68
2022/03/26 08:33:57;;;;;;;;;;;;;;;19.75;24.13;99448.66;4812637;29;19953;-68
2022/03/26 08:36:24;;;;;;;;;;;;;;;19.36;24.54;99449.28;4813104;29;19947;-68
2022/03/26 08:38:52;;;;;;;;;;;;;;;19.36;23.08;99452.13;4813058;29;19982;-68
2022/03/26 08:41:20;;;;;;;;;;;;;;;18.77;23.43;99446.09;4813097;29;19957;-68
2022/03/26 08:43:50;;;;;;;;;;;;;;;18.68;23.68;99446.59;4812638;29;19948;-68
2022/03/26 08:46:18;;;;;;;;;;;;;;;18.19;24.46;99447.19;4812647;29;19957;-68
2022/03/26 08:48:46;;;;;;;;;;;;;;;18.34;23.91;99446.56;4796756;29;19973;-68
2022/03/26 08:51:14;;;;;;;;;;;;;;;18.35;24.38;99448.19;4813373;29;19949;-68
2022/03/26 08:53:41;;;;;;;;;;;;;;;18.41;24.93;99447.72;4812977;29;19976;-68
2022/03/26 08:56:09;;;;;;;;;;;;;;;17.90;24.80;99452.31;4812455;29;20024;-68
2022/03/26 08:58:36;;;;;;;;;;;;;;;17.76;25.30;99454.47;4813389;29;19944;-68
2022/03/26 09:01:04;;;;;;;;;;;;;;;17.84;25.53;99456.03;4812577;29;19946;-68
2022/03/26 09:03:32;;;;;;;;;;;;;;;18.14;24.87;99453.31;4812264;29;19979;-68
2022/03/26 09:05:59;;;;;;;;;;;;;;;17.77;25.49;99456.09;4812745;29;19948;-68
2022/03/26 09:08:26;;;;;;;;;;;;;;;17.95;26.17;99459.56;4812689;29;19947;-68
2022/03/26 09:10:54;;;;;;;;;;;;;;;17.85;26.39;99452.75;4811919;29;19970;-68
2022/03/26 09:13:21;;;;;;;;;;;;;;;18.01;26.65;99452.22;4812978;29;19977;-68
2022/03/26 09:15:48;;;;;;;;;;;;;;;18.07;27.05;99459.81;4812430;29;19958;-67
2022/03/26 09:18:16;;;;;;;;;;;;;;;17.83;27.86;99446.72;4812580;29;19948;-68
2022/03/26 09:20:43;;;;;;;;;;;;;;;17.89;27.05;99452.75;4812406;29;19954;-68
2022/03/26 09:23:11;;;;;;;;;;;;;;;18.02;27.32;99460.28;4812315;29;19955;-68
2022/03/26 09:25:39;;;;;;;;;;;;;;;18.09;26.74;99457.41;4811596;29;19981;-68
2022/03/26 09:28:06;;;;;;;;;;;;;;;18.03;26.95;99452.59;4811922;29;19972;-68
2022/03/26 09:30:33;;;;;;;;;;;;;;;18.13;26.70;99458.16;4812010;29;20222;-68
2022/03/26 09:33:01;;;;;;;;;;;;;;;18.14;27.61;99456.13;4811992;29;19929;-68
2022/03/26 09:35:28;;;;;;;;;;;;;;;18.14;26.31;99458.97;4812188;29;19977;-68
2022/03/26 09:37:56;;;;;;;;;;;;;;;18.06;26.72;99455.41;4811747;29;19943;-68
2022/03/26 09:40:23;;;;;;;;;;;;;;;17.48;28.03;99455.50;4812569;29;19950;-68
2022/03/26 09:42:52;;;;;;;;;;;;;;;17.45;29.61;99459.16;4811632;29;19958;-68
2022/03/26 09:45:19;;;;;;;;;;;;;;;17.80;27.83;99456.06;4811860;29;19958;-68
2022/03/26 09:47:47;;;;;;;;;;;;;;;17.64;28.34;99445.28;4811830;29;19975;-68
2022/03/26 09:50:15;;;;;;;;;;;;;;;17.75;28.41;99450.84;4812258;29;19977;-68
2022/03/26 09:52:43;;;;;;;;;;;;;;;17.78;28.64;99449.22;4811581;29;19950;-68
2022/03/26 09:55:12;;;;;;;;;;;;;;;17.84;28.47;99450.34;4811872;29;19948;-68
2022/03/26 09:57:40;;;;;;;;;;;;;;;17.90;28.19;99457.19;4811525;29;19953;-68
2022/03/26 10:00:09;;;;;;;;;;;;;;;17.81;28.27;99442.69;4812352;29;19947;-68
2022/03/26 10:02:40;;;;;;;;;;;;;;;17.48;28.91;99450.63;4812511;29;20024;-68
2022/03/26 10:05:08;;;;;;;;;;;;;;;17.89;28.12;99458.41;4811471;29;19953;-68
2022/03/26 10:07:35;;;;;;;;;;;;;;;17.97;28.83;99452.25;4811335;29;20256;-68
2022/03/26 10:10:03;;;;;;;;;;;;;;;17.73;28.81;99448.44;4811038;29;20373;-68
2022/03/26 10:12:30;;;;;;;;;;;;;;;17.81;28.99;99454.03;4811385;29;20374;-68
2022/03/26 10:14:59;;;;;;;;;;;;;;;17.97;28.78;99442.97;4811419;29;19956;-68
2022/03/26 10:17:27;;;;;;;;;;;;;;;18.12;28.27;99450.88;4812279;29;20228;-68
2022/03/26 10:19:56;;;;;;;;;;;;;;;18.35;27.58;99445.38;4811469;29;19955;-68
2022/03/26 10:22:43;;;;;;;;;;;;;;;18.23;27.88;99445.09;4806274;29;20069;-68
2022/03/26 10:25:11;;;;;;;;;;;;;;;18.09;28.04;99448.09;4811711;29;19949;-68
2022/03/26 10:27:40;;;;;;;;;;;;;;;18.04;28.10;99445.72;4810980;29;19953;-68
2022/03/26 10:30:12;;;;;;;;;;;;;;;18.29;28.95;99440.59;4811236;29;19967;-68
2022/03/26 10:32:45;;;;;;;;;;;;;;;18.35;28.16;99439.69;4811121;29;19951;-68
2022/03/26 10:35:17;;;;;;;;;;;;;;;18.38;29.17;99435.22;4811134;29;19950;-68
2022/03/26 10:37:46;;;;;;;;;;;;;;;18.37;29.66;99434.41;4793709;29;19957;-68
2022/03/26 10:40:18;;;;;;;;;;;;;;;18.20;29.18;99437.44;4806304;29;19951;-68
2022/03/26 10:42:51;;;;;;;;;;;;;;;18.24;29.79;99436.16;4808902;29;20333;-68
2022/03/26 10:45:19;;;;;;;;;;;;;;;18.21;29.62;99434.22;4810531;29;19956;-68
2022/03/26 10:47:47;;;;;;;;;;;;;;;18.32;28.63;99432.03;4792121;30;19960;-68
2022/03/26 10:50:15;;;;;;;;;;;;;;;17.90;29.75;99426.84;4792544;30;19976;-68
2022/03/26 10:52:43;;;;;;;;;;;;;;;18.22;30.61;99420.84;4792723;30;19956;-68
2022/03/26 10:55:15;;;;;;;;;;;;;;;18.30;29.60;99419.53;4777490;30;19957;-68
2022/03/26 10:57:46;;;;;;;;;;;;;;;18.48;29.91;99419.34;4798817;29;19951;-68
2022/03/26 11:00:17;;;;;;;;;;;;;;;18.45;30.77;99423.81;4810613;29;19956;-68
2022/03/26 11:02:45;;;;;;;;;;;;;;;18.51;30.26;99416.47;4811352;29;19959;-68
2022/03/26 11:05:12;;;;;;;;;;;;;;;18.40;29.51;99421.44;4810842;29;19955;-68
2022/03/26 11:07:43;;;;;;;;;;;;;;;18.54;29.23;99412.78;4814987;29;19956;-68
2022/03/26 11:10:12;;;;;;;;;;;;;;;18.40;28.73;99415.78;4808893;29;19969;-68
2022/03/26 11:12:41;;;;;;;;;;;;;;;18.16;28.77;99405.56;4810008;29;19979;-68
2022/03/26 11:15:10;;;;;;;;;;;;;;;18.22;32.33;99404.66;4809334;29;20337;-68
2022/03/26 11:17:38;;;;;;;;;;;;;;;18.29;30.89;99404.56;4809468;29;19951;-68
2022/03/26 11:20:08;;;;;;;;;;;;;;;18.46;29.91;99397.13;4809527;29;20229;-68
2022/03/26 11:22:35;;;;;;;;;;;;;;;18.55;29.91;99391.75;4809186;29;19978;-68
2022/03/26 11:25:08;;;;;;;;;;;;;;;18.47;30.03;99393.06;4810667;29;20255;-68
2022/03/26 11:27:54;;;;;;;;;;;;;;;18.12;31.18;99388.59;4810496;29;19948;-68
2022/03/26 11:30:21;;;;;;;;;;;;;;;17.98;29.81;99390.78;4809919;29;19992;-68
2022/03/26 11:32:52;;;;;;;;;;;;;;;17.97;31.09;99380.69;4809822;29;19958;-68
2022/03/26 11:35:19;;;;;;;;;;;;;;;17.93;31.86;99377.91;4792946;29;19963;-68
2022/03/26 11:37:54;;;;;;;;;;;;;;;17.94;31.35;99381.53;4792661;30;19953;-68
2022/03/26 11:40:41;;;;;;;;;;;;;;;17.81;31.68;99380.47;4792732;30;20328;-68
2022/03/26 11:43:09;;;;;;;;;;;;;;;18.01;32.24;99381.44;4792691;30;19955;-68
2022/03/26 11:51:25;;;;;;;;;;;;;;;17.76;31.74;99380.91;4792200;30;20273;-68
2022/03/26 11:54:04;;;;;;;;;;;;;;;17.89;31.21;99362.19;4792099;30;19948;-68
2022/03/26 11:56:32;;;;;;;;;;;;;;;17.88;32.62;99357.75;4796708;29;19957;-68
2022/03/26 11:59:03;;;;;;;;;;;;;;;18.04;32.33;99364.44;4807301;29;20251;-68
2022/03/26 12:01:40;;;;;;;;;;;;;;;17.84;31.35;99359.81;4809248;29;19961;-68
2022/03/26 12:04:18;;;;;;;;;;;;;;;17.97;31.98;99349.56;4808152;29;20337;-68
2022/03/26 12:06:48;;;;;;;;;;;;;;;17.93;33.07;99357.28;4794828;29;19957;-68
2022/03/26 12:09:32;;;;;;;;;;;;;;;17.52;32.58;99348.84;4808943;29;19965;-68
2022/03/26 12:12:12;;;;;;;;;;;;;;;17.93;34.26;99349.59;4808866;29;20233;-68
2022/03/26 12:14:57;;;;;;;;;;;;;;;18.07;33.53;99346.59;4808504;29;19958;-68
2022/03/26 12:17:44;;;;;;;;;;;;;;;18.21;32.12;99343.59;4807835;29;19949;-68
2022/03/26 12:20:17;;;;;;;;;;;;;;;18.21;32.99;99343.59;4809419;29;19951;-68
2022/03/26 12:22:44;;;;;;;;;;;;;;;18.18;32.95;99341.63;4800989;29;19948;-68
2022/03/26 12:25:16;;;;;;;;;;;;;;;18.08;33.10;99342.56;4791351;30;19957;-68
2022/03/26 12:27:44;;;;;;;;;;;;;;;18.05;31.84;99339.75;4791747;30;19957;-68
2022/03/26 12:30:13;;;;;;;;;;;;;;;18.25;33.06;99333.03;4807689;29;19961;-68
2022/03/26 12:32:41;;;;;;;;;;;;;;;18.41;33.49;99329.59;4809136;29;19955;-68
2022/03/26 12:35:09;;;;;;;;;;;;;;;18.34;33.84;99332.50;4809636;29;19956;-68
2022/03/26 12:37:38;;;;;;;;;;;;;;;18.22;32.69;99333.06;4809725;29;19951;-68
2022/03/26 12:40:07;;;;;;;;;;;;;;;18.24;31.73;99334.25;4808244;29;19950;-68
2022/03/26 12:42:34;;;;;;;;;;;;;;;17.94;33.46;99322.09;4809949;29;19946;-67
2022/03/26 12:45:12;;;;;;;;;;;;;;;18.10;33.34;99325.13;4809323;29;19950;-67
2022/03/26 12:47:43;;;;;;;;;;;;;;;18.05;33.41;99317.09;4809332;29;19948;-67
2022/03/26 12:50:10;;;;;;;;;;;;;;;18.03;31.07;99322.41;4809786;29;19951;-67
2022/03/26 12:52:37;;;;;;;;;;;;;;;18.18;32.17;99324.63;4809224;29;19975;-67
2022/03/26 12:55:05;;;;;;;;;;;;;;;18.23;32.10;99317.69;4809047;29;19957;-67
2022/03/26 13:00:24;;;;;;;;;;;;;;;18.17;33.17;99311.69;4809202;29;19946;-67
2022/03/26 13:03:08;;;;;;;;;;;;;;;18.44;32.34;99316.63;4808169;29;20230;-68
2022/03/26 13:05:37;;;;;;;;;;;;;;;18.33;34.22;99294.09;4810058;29;19948;-68
2022/03/26 13:08:10;;;;;;;;;;;;;;;18.25;34.63;99303.91;4811246;29;19951;-68
2022/03/26 13:10:39;;;;;;;;;;;;;;;18.28;35.45;99297.41;4800771;29;19977;-68
2022/03/26 13:13:06;;;;;;;;;;;;;;;18.40;35.27;99296.81;4829852;29;19977;-68
2022/03/26 13:15:34;;;;;;;;;;;;;;;18.48;33.95;99308.88;4829920;29;19951;-68
2022/03/26 13:18:09;;;;;;;;;;;;;;;18.37;34.42;99295.66;4804327;29;19966;-68
2022/03/26 13:20:38;;;;;;;;;;;;;;;17.92;33.14;99291.41;4804516;29;19953;-68
2022/03/26 13:23:07;;;;;;;;;;;;;;;18.04;33.48;99295.72;4808873;29;19955;-70
2022/03/26 13:25:36;;;;;;;;;;;;;;;18.12;33.90;99283.06;4791922;29;19956;-68
2022/03/26 13:28:16;;;;;;;;;;;;;;;18.30;33.76;99287.25;4808148;29;19962;-69
2022/03/26 13:30:46;;;;;;;;;;;;;;;17.94;33.03;99288.16;4808363;29;19965;-68
2022/03/26 13:33:20;;;;;;;;;;;;;;;18.01;32.44;99277.53;4808730;29;19956;-69
2022/03/26 13:35:48;;;;;;;;;;;;;;;17.93;32.95;99281.69;4808903;29;19951;-70
2022/03/26 13:38:15;;;;;;;;;;;;;;;17.83;33.32;99271.28;4809952;29;19948;-69
2022/03/26 13:40:43;;;;;;;;;;;;;;;18.05;33.53;99277.47;4809021;29;19955;-70
2022/03/26 13:43:11;;;;;;;;;;;;;;;18.03;32.91;99271.44;4807266;29;20251;-68
2022/03/26 13:45:41;;;;;;;;;;;;;;;17.93;33.29;99267.53;4811691;29;20347;-68
2022/03/26 13:48:08;;;;;;;;;;;;;;;17.85;29.28;99277.31;4811069;29;19950;-68
2022/03/26 13:50:36;;;;;;;;;;;;;;;18.07;31.19;99263.72;4812864;29;19949;-68
2022/03/26 13:53:15;;;;;;;;;;;;;;;18.13;31.38;99262.81;4803949;29;20361;-69
2022/03/26 13:55:46;;;;;;;;;;;;;;;18.13;32.87;99259.19;4795264;29;19957;-67
2022/03/26 13:58:18;;;;;;;;;;;;;;;18.19;32.71;99260.31;4798379;29;19962;-67
2022/03/26 14:00:45;;;;;;;;;;;;;;;18.29;32.59;99254.50;4809471;29;19948;-67
2022/03/26 14:03:14;;;;;;;;;;;;;;;18.20;31.63;99257.06;4810412;29;20251;-68
2022/03/26 14:05:42;;;;;;;;;;;;;;;18.21;31.18;99252.19;4802311;29;19948;-68
2022/03/26 14:08:11;;;;;;;;;;;;;;;18.13;29.75;99257.16;4807650;29;19949;-68
2022/03/26 14:10:39;;;;;;;;;;;;;;;18.15;29.37;99256.72;4811321;29;20359;-69
2022/03/26 14:13:08;;;;;;;;;;;;;;;17.96;31.52;99254.56;4808039;29;20276;-68
2022/03/26 14:15:36;;;;;;;;;;;;;;;18.02;32.61;99244.38;4798455;29;19961;-68
2022/03/26 14:18:03;;;;;;;;;;;;;;;17.96;31.01;99246.88;4808221;29;20379;-68
2022/03/26 14:20:31;;;;;;;;;;;;;;;17.99;30.95;99250.88;4810289;29;20013;-68
2022/03/26 14:22:59;;;;;;;;;;;;;;;17.92;31.77;99240.47;4801808;29;19955;-68
2022/03/26 14:25:30;;;;;;;;;;;;;;;17.91;32.20;99241.69;4809750;29;19952;-68
2022/03/26 14:28:02;;;;;;;;;;;;;;;17.81;32.07;99236.97;4803900;29;20251;-67
2022/03/26 14:30:31;;;;;;;;;;;;;;;17.80;32.46;99234.56;4818374;29;19971;-66
2022/03/26 14:32:58;;;;;;;;;;;;;;;17.87;30.89;99238.13;4796340;29;20238;-67
2022/03/26 14:35:26;;;;;;;;;;;;;;;17.86;29.61;99235.69;4807633;29;19957;-68
2022/03/26 14:37:54;;;;;;;;;;;;;;;17.84;31.28;99226.81;4801892;29;19954;-68
2022/03/26 14:40:21;;;;;;;;;;;;;;;17.84;32.12;99227.63;4804613;29;19947;-68
2022/03/26 14:42:48;;;;;;;;;;;;;;;17.73;30.48;99229.78;4795583;29;20363;-68
2022/03/26 14:45:16;;;;;;;;;;;;;;;17.76;30.08;99228.13;4805131;29;19954;-68
2022/03/26 14:47:43;;;;;;;;;;;;;;;17.77;31.47;99221.28;4810424;29;20237;-68
2022/03/26 14:50:11;;;;;;;;;;;;;;;17.63;32.13;99222.25;4810644;29;19975;-68
2022/03/26 14:52:39;;;;;;;;;;;;;;;17.81;31.99;99219.19;4810230;29;19998;-68
2022/03/26 14:55:07;;;;;;;;;;;;;;;17.68;31.01;99227.41;4809844;29;19962;-68
2022/03/26 14:57:34;;;;;;;;;;;;;;;17.59;31.05;99227.94;4803756;29;19964;-68
2022/03/26 15:00:03;;;;;;;;;;;;;;;17.54;30.85;99217.09;4805285;29;19957;-68
2022/03/26 15:02:30;;;;;;;;;;;;;;;17.64;31.39;99221.03;4801554;29;19948;-68
2022/03/26 15:04:59;;;;;;;;;;;;;;;17.65;30.21;99216.97;4807679;29;19950;-68
2022/03/26 15:07:27;;;;;;;;;;;;;;;17.81;30.10;99213.53;4801557;29;20274;-68
2022/03/26 15:09:55;;;;;;;;;;;;;;;17.84;31.51;99221.16;4810730;29;20321;-68
2022/03/26 15:12:22;;;;;;;;;;;;;;;17.69;31.29;99224.19;4810219;29;19977;-68
2022/03/26 15:14:50;;;;;;;;;;;;;;;17.76;31.77;99223.28;4809172;29;19953;-68
2022/03/26 15:17:17;;;;;;;;;;;;;;;17.77;30.32;99224.09;4809903;29;19959;-68
2022/03/26 15:19:45;;;;;;;;;;;;;;;17.76;29.98;99217.63;4809454;29;19951;-68
2022/03/26 15:22:12;;;;;;;;;;;;;;;17.82;30.75;99224.44;4808138;29;20248;-68
2022/03/26 15:24:39;;;;;;;;;;;;;;;17.70;30.77;99217.28;4802853;29;19955;-68
2022/03/26 15:27:07;;;;;;;;;;;;;;;17.68;30.89;99218.94;4809367;29;19952;-68
2022/03/26 15:29:34;;;;;;;;;;;;;;;17.64;31.10;99221.81;4799752;29;19954;-68
2022/03/26 15:32:01;;;;;;;;;;;;;;;17.66;31.05;99222.19;4809575;29;19964;-68
2022/03/26 15:34:29;;;;;;;;;;;;;;;17.61;31.43;99228.31;4809145;29;19955;-68
2022/03/26 15:36:56;;;;;;;;;;;;;;;17.63;32.13;99220.22;4804422;29;19950;-68
2022/03/26 15:39:23;;;;;;;;;;;;;;;17.64;30.93;99221.03;4804738;29;19950;-68
2022/03/26 15:41:51;;;;;;;;;;;;;;;17.54;29.99;99222.75;4801043;29;19947;-68
2022/03/26 15:44:18;;;;;;;;;;;;;;;17.51;29.65;99219.94;4810006;29;20342;-68
2022/03/26 15:46:45;;;;;;;;;;;;;;;17.47;28.77;99222.81;4809462;29;20236;-68
2022/03/26 15:49:13;;;;;;;;;;;;;;;17.37;29.38;99222.91;4796578;29;19957;-68
2022/03/26 15:51:40;;;;;;;;;;;;;;;17.44;29.44;99222.84;4810177;29;19972;-68
2022/03/26 15:54:07;;;;;;;;;;;;;;;17.49;28.22;99225.22;4810263;29;19951;-68
2022/03/26 15:56:37;;;;;;;;;;;;;;;17.49;28.08;99228.03;4809548;29;19948;-68
2022/03/26 15:59:06;;;;;;;;;;;;;;;17.32;28.06;99232.66;4808950;29;19957;-68
2022/03/26 16:01:34;;;;;;;;;;;;;;;17.51;28.59;99229.22;4807920;29;20233;-68
2022/03/26 16:04:01;;;;;;;;;;;;;;;17.42;29.27;99228.94;4807991;29;19958;-68
2022/03/26 16:06:28;;;;;;;;;;;;;;;17.36;29.91;99219.28;4806960;29;19950;-68
2022/03/26 16:08:55;;;;;;;;;;;;;;;17.40;30.28;99217.25;4809096;29;19946;-68
2022/03/26 16:11:23;;;;;;;;;;;;;;;17.34;30.20;99223.75;4803411;29;19979;-68
2022/03/26 16:13:50;;;;;;;;;;;;;;;17.26;30.42;99222.25;4800415;29;19966;-68
2022/03/26 16:16:18;;;;;;;;;;;;;;;17.24;30.19;99221.88;4801969;29;19953;-68
2022/03/26 16:18:45;;;;;;;;;;;;;;;17.17;30.75;99227.56;4809085;29;20239;-68
2022/03/26 16:21:12;;;;;;;;;;;;;;;17.29;29.77;99229.91;4809297;29;20251;-68
2022/03/26 16:23:40;;;;;;;;;;;;;;;17.13;29.89;99227.63;4804078;29;19950;-68
2022/03/26 16:26:07;;;;;;;;;;;;;;;17.15;29.83;99230.03;4812581;29;19952;-68
2022/03/26 16:28:35;;;;;;;;;;;;;;;17.04;29.98;99228.09;4809719;29;20360;-68
2022/03/26 16:31:02;;;;;;;;;;;;;;;16.98;30.03;99229.78;4809436;29;19959;-68
2022/03/26 16:33:30;;;;;;;;;;;;;;;16.94;30.71;99229.03;4809842;29;20378;-68
2022/03/26 16:35:57;;;;;;;;;;;;;;;16.89;31.14;99223.84;4810548;29;19954;-68
2022/03/26 16:38:24;;;;;;;;;;;;;;;16.90;30.98;99221.78;4812622;29;20219;-68
2022/03/26 16:40:52;;;;;;;;;;;;;;;16.95;31.36;99224.97;4812515;29;20250;-68
2022/03/26 16:43:19;;;;;;;;;;;;;;;17.01;31.19;99222.50;4813020;29;20338;-68
2022/03/26 16:45:47;;;;;;;;;;;;;;;16.91;31.53;99232.69;4810042;29;20156;-68
2022/03/26 16:48:14;;;;;;;;;;;;;;;16.94;31.59;99231.88;4809669;29;19955;-68
2022/03/26 16:50:42;;;;;;;;;;;;;;;16.84;31.73;99235.59;4812799;29;19953;-68
2022/03/26 16:53:09;;;;;;;;;;;;;;;16.73;32.11;99228.41;4811956;29;19964;-68
2022/03/26 16:55:37;;;;;;;;;;;;;;;16.67;31.60;99230.09;4812423;29;19953;-68
2022/03/26 16:58:04;;;;;;;;;;;;;;;16.65;31.83;99226.88;4811256;29;19958;-68
2022/03/26 17:00:33;;;;;;;;;;;;;;;16.59;32.13;99225.69;4800619;29;19949;-68
2022/03/26 17:03:00;;;;;;;;;;;;;;;16.54;31.81;99226.13;4812004;29;19951;-68
2022/03/26 17:05:28;;;;;;;;;;;;;;;16.53;32.04;99219.69;4809697;29;20249;-68
2022/03/26 17:07:55;;;;;;;;;;;;;;;16.47;32.09;99221.34;4811828;29;19956;-68
2022/03/26 17:10:22;;;;;;;;;;;;;;;16.41;32.33;99223.78;4812693;29;19959;-68
2022/03/26 17:12:50;;;;;;;;;;;;;;;16.38;32.32;99233.06;4811255;29;19969;-68
2022/03/26 17:15:17;;;;;;;;;;;;;;;16.32;32.36;99225.47;4804292;29;19944;-68
2022/03/26 17:17:44;;;;;;;;;;;;;;;16.40;32.21;99227.03;4812152;29;19948;-68
2022/03/26 17:20:12;;;;;;;;;;;;;;;16.33;32.79;99233.50;4811831;29;19944;-68
2022/03/26 17:22:41;;;;;;;;;;;;;;;16.21;33.00;99225.53;4812247;29;19950;-68
2022/03/26 17:25:09;;;;;;;;;;;;;;;16.10;33.33;99224.81;4801335;29;19957;-68
2022/03/26 17:27:36;;;;;;;;;;;;;;;16.01;33.42;99230.13;4812073;29;20332;-68
2022/03/26 17:30:04;;;;;;;;;;;;;;;15.96;33.84;99229.72;4812271;29;19957;-68
2022/03/26 17:32:32;;;;;;;;;;;;;;;15.88;33.52;99228.97;4812525;29;19975;-68
2022/03/26 17:35:00;;;;;;;;;;;;;;;15.74;34.40;99227.03;4811842;29;19966;-68
2022/03/26 17:37:27;;;;;;;;;;;;;;;15.68;34.42;99227.84;4811217;29;19953;-68
2022/03/26 17:39:54;;;;;;;;;;;;;;;15.66;34.43;99235.91;4810962;29;19954;-68
2022/03/26 17:42:22;;;;;;;;;;;;;;;15.53;34.93;99235.56;4810410;29;19949;-68
2022/03/26 17:44:49;;;;;;;;;;;;;;;15.42;35.20;99231.16;4808763;29;20343;-68
2022/03/26 17:47:17;;;;;;;;;;;;;;;15.34;35.56;99229.56;4803464;29;19967;-68
2022/03/26 17:49:44;;;;;;;;;;;;;;;15.35;35.86;99234.81;4803416;29;19953;-68
2022/03/26 17:52:11;;;;;;;;;;;;;;;15.36;36.26;99239.22;4805424;29;19944;-68
2022/03/26 17:54:39;;;;;;;;;;;;;;;15.30;36.49;99237.22;4810588;29;19955;-68
2022/03/26 17:57:06;;;;;;;;;;;;;;;15.31;36.50;99236.03;4811490;29;19959;-68
2022/03/26 17:59:34;;;;;;;;;;;;;;;15.30;36.42;99240.84;4810752;29;19982;-68
2022/03/26 18:02:01;;;;;;;;;;;;;;;15.30;36.58;99238.03;4811289;29;19950;-68
2022/03/26 18:04:28;;;;;;;;;;;;;;;15.28;36.53;99242.47;4811579;29;19955;-68
2022/03/26 18:06:56;;;;;;;;;;;;;;;15.30;36.59;99240.03;4811607;29;19948;-68
2022/03/26 18:09:23;;;;;;;;;;;;;;;15.24;37.36;99238.84;4811335;29;20332;-68
2022/03/26 18:11:52;;;;;;;;;;;;;;;15.18;37.30;99241.28;4811747;29;19970;-68
2022/03/26 18:14:20;;;;;;;;;;;;;;;15.09;37.30;99241.69;4798168;29;19974;-68